KMSV/MSV METAR and TAF weather

Enter ICAO airport designator
Station Type Date Time Source
KMSV METAR 2020/09/21 08:56 UTC NOAA

KMSV 210856Z AUTO 07003KT 10SM CLR 03/00 A3057 RMK AO2 SLP358 T00280000 51002


Station Type Date Time Source
KMSV Decoded METAR 2020/09/21 08:56 UTC NOAA

Monticello, Sullivan County International Airport, NY, United States (KMSV) 41-42N 074-48W
Sep 21, 2020 - 04:56 AM EDT / 2020.09.21 0856 UTC
Wind: from the ENE (070 degrees) at 3 MPH (3 KT):0
Visibility: 10 mile(s):0
Sky conditions: clear
Temperature: 37.0 F (2.8 C)
Dew Point: 32.0 F (0.0 C)
Relative Humidity: 81%
Pressure (altimeter): 30.57 in. Hg (1035 hPa)
Pressure tendency: 0.01 inches (0.2 hPa) higher than three hours ago
ob: KMSV 210856Z AUTO 07003KT 10SM CLR 03/00 A3057 RMK AO2 SLP358 T00280000 51002
cycle: 9

Station Type Date Time Source
KMSV TAF UTC NOAA

Error!

Example: see airport list